createdAt,value
2018-04-17T00:01:34.916Z,5.23
2018-04-17T00:04:05.449Z,3.90
2018-04-17T00:06:33.688Z,5.00
2018-04-17T00:09:01.952Z,4.37
2018-04-17T00:11:30.195Z,6.53
2018-04-17T00:13:58.427Z,6.10
2018-04-17T00:16:26.699Z,5.77
2018-04-17T00:18:55.705Z,5.27
2018-04-17T00:21:24.089Z,8.37
2018-04-17T00:23:52.483Z,4.97
2018-04-17T00:26:20.723Z,9.83
2018-04-17T00:28:48.968Z,13.90
2018-04-17T00:31:17.231Z,5.83
2018-04-17T00:33:45.467Z,4.50
2018-04-17T00:36:13.703Z,6.70
2018-04-17T00:38:42.436Z,8.10
2018-04-17T00:41:10.679Z,6.40
2018-04-17T00:43:39.791Z,5.67
2018-04-17T00:46:09.036Z,5.10
2018-04-17T00:48:37.282Z,4.10
2018-04-17T00:51:05.579Z,7.70
2018-04-17T00:53:45.714Z,5.47
2018-04-17T00:56:13.972Z,5.67
2018-04-17T00:58:42.970Z,4.93
2018-04-17T01:01:12.244Z,7.67
2018-04-17T01:03:40.479Z,5.60
2018-04-17T01:06:08.719Z,6.47
2018-04-17T01:08:38.062Z,6.73
2018-04-17T01:11:06.361Z,4.93
2018-04-17T01:13:34.602Z,5.17
2018-04-17T01:16:02.859Z,5.03
2018-04-17T01:18:31.863Z,5.30
2018-04-17T01:21:00.099Z,6.17
2018-04-17T01:23:28.562Z,8.37
2018-04-17T01:25:56.795Z,4.03
2018-04-17T01:28:25.031Z,6.13
2018-04-17T01:30:53.295Z,7.33
2018-04-17T01:33:21.531Z,4.40
2018-04-17T01:35:49.766Z,4.40
2018-04-17T01:38:18.035Z,6.43
2018-04-17T01:40:46.791Z,6.13
2018-04-17T01:43:15.287Z,9.83
2018-04-17T01:45:43.603Z,7.97
2018-04-17T01:48:11.843Z,9.07
2018-04-17T01:50:40.078Z,5.23
2018-04-17T01:53:08.342Z,6.57
2018-04-17T01:55:36.575Z,6.33
2018-04-17T01:58:04.819Z,6.00
2018-04-17T02:00:33.082Z,4.93
2018-04-17T02:03:02.083Z,4.43
2018-04-17T02:05:30.320Z,6.00
2018-04-17T02:07:58.847Z,4.20
2018-04-17T02:10:27.089Z,5.10
2018-04-17T02:12:55.325Z,5.00
2018-04-17T02:15:23.583Z,9.27
2018-04-17T02:17:51.974Z,4.50
2018-04-17T02:20:20.211Z,5.53
2018-04-17T02:22:48.516Z,8.23
2018-04-17T02:25:16.843Z,4.63
2018-04-17T02:27:45.852Z,4.60
2018-04-17T02:30:14.955Z,6.80
2018-04-17T02:32:43.255Z,4.93
2018-04-17T02:35:11.879Z,7.40
2018-04-17T02:37:40.143Z,4.63
2018-04-17T02:40:08.380Z,5.47
2018-04-17T02:42:36.728Z,6.20
2018-04-17T02:45:05.758Z,6.57
2018-04-17T02:47:34.148Z,9.60
2018-04-17T02:50:03.105Z,4.87
2018-04-17T02:52:32.461Z,4.13
2018-04-17T02:55:00.701Z,5.60
2018-04-17T02:57:28.947Z,6.60
2018-04-17T02:59:57.271Z,5.67
2018-04-17T03:02:25.580Z,6.13
2018-04-17T03:04:53.823Z,5.47
2018-04-17T03:07:22.091Z,5.17
2018-04-17T03:09:50.332Z,9.77
2018-04-17T03:12:18.858Z,6.07
2018-04-17T03:14:47.183Z,5.47
2018-04-17T03:17:15.438Z,5.10
2018-04-17T03:19:43.674Z,8.83
2018-04-17T03:22:11.933Z,6.70
2018-04-17T03:24:40.177Z,7.23
2018-04-17T03:27:08.419Z,7.23
2018-04-17T03:29:36.679Z,5.60
2018-04-17T03:32:04.923Z,5.40
2018-04-17T03:34:33.927Z,5.70
2018-04-17T03:37:03.268Z,8.10
2018-04-17T03:39:31.503Z,6.37
2018-04-17T03:41:59.739Z,6.13
2018-04-17T03:44:28.377Z,6.03
2018-04-17T03:46:57.378Z,6.60
2018-04-17T03:49:25.615Z,8.93
2018-04-17T03:51:53.883Z,6.13
2018-04-17T03:54:22.196Z,6.90
2018-04-17T03:56:50.411Z,6.60
2018-04-17T03:59:19.814Z,9.67
2018-04-17T04:01:48.050Z,8.73
2018-04-17T04:04:16.296Z,6.67
2018-04-17T04:06:44.556Z,6.40
2018-04-17T04:09:12.796Z,6.50
2018-04-17T04:11:41.195Z,7.73
2018-04-17T04:14:09.542Z,6.53
2018-04-17T04:16:50.195Z,7.03
2018-04-17T04:19:31.215Z,9.60
2018-04-17T04:22:11.307Z,13.43
2018-04-17T04:24:51.295Z,12.60
2018-04-17T04:27:19.614Z,8.67
2018-04-17T04:29:47.855Z,19.40
2018-04-17T04:32:16.123Z,12.17
2018-04-17T04:34:44.549Z,8.40
2018-04-17T04:37:12.855Z,7.40
2018-04-17T04:39:41.294Z,11.13
2018-04-17T04:42:09.885Z,9.10
2018-04-17T04:44:38.613Z,8.53
2018-04-17T04:47:07.640Z,7.77
2018-04-17T04:49:35.884Z,11.03
2018-04-17T04:52:04.129Z,8.20
2018-04-17T04:54:32.380Z,9.10
2018-04-17T04:57:00.616Z,9.27
2018-04-17T04:59:28.851Z,7.90
2018-04-17T05:01:57.299Z,10.13
2018-04-17T05:04:25.553Z,7.70
2018-04-17T05:06:53.841Z,9.73
2018-04-17T05:09:22.132Z,11.03
2018-04-17T05:11:50.483Z,15.10
2018-04-17T05:14:19.508Z,10.67
2018-04-17T05:16:47.784Z,8.50
2018-04-17T05:19:16.019Z,6.77
2018-04-17T05:21:44.258Z,8.73
2018-04-17T05:24:13.054Z,7.43
2018-04-17T05:26:41.372Z,7.10
2018-04-17T05:29:11.637Z,7.20
2018-04-17T05:31:40.016Z,7.97
2018-04-17T05:34:08.259Z,16.27
2018-04-17T05:36:36.508Z,11.10
2018-04-17T05:39:05.542Z,11.57
2018-04-17T05:41:33.779Z,11.90
2018-04-17T05:44:02.036Z,12.67
2018-04-17T05:46:30.593Z,11.67
2018-04-17T05:48:58.839Z,11.03
2018-04-17T05:51:27.481Z,21.57
2018-04-17T05:53:55.749Z,12.63
2018-04-17T05:56:23.983Z,14.20
2018-04-17T05:58:52.252Z,10.90
2018-04-17T06:01:21.271Z,12.00
2018-04-17T06:03:49.563Z,12.43
2018-04-17T06:06:17.795Z,9.77
2018-04-17T06:08:46.445Z,27.53
2018-04-17T06:11:14.676Z,17.13
2018-04-17T06:13:42.973Z,17.53
2018-04-17T06:16:11.203Z,14.60
2018-04-17T06:18:40.199Z,16.00
2018-04-17T06:21:08.471Z,15.13
2018-04-17T06:23:37.502Z,16.53
2018-04-17T06:26:05.768Z,12.20
2018-04-17T06:28:34.095Z,15.90
2018-04-17T06:31:02.412Z,15.03
2018-04-17T06:33:30.669Z,19.83
2018-04-17T06:35:58.945Z,13.80
2018-04-17T06:38:27.215Z,18.50
2018-04-17T06:40:55.542Z,22.17
2018-04-17T06:43:23.786Z,19.67
2018-04-17T06:45:52.310Z,21.60
2018-04-17T06:48:20.949Z,18.30
2018-04-17T06:50:49.175Z,21.27
2018-04-17T06:53:17.755Z,14.33
2018-04-17T06:55:45.998Z,20.70
2018-04-17T06:58:14.333Z,16.10
2018-04-17T07:00:42.587Z,23.77
2018-04-17T07:03:10.831Z,15.03
2018-04-17T07:05:39.169Z,16.27
2018-04-17T07:08:07.415Z,17.83
2018-04-17T07:10:35.666Z,16.47
2018-04-17T07:13:03.915Z,15.07
2018-04-17T07:15:33.482Z,17.87
2018-04-17T07:18:01.816Z,17.90
2018-04-17T07:20:30.827Z,21.70
2018-04-17T07:22:59.100Z,18.63
2018-04-17T07:25:27.352Z,16.03
2018-04-17T07:27:55.600Z,18.03
2018-04-17T07:30:23.867Z,16.50
2018-04-17T07:32:52.124Z,16.90
2018-04-17T07:35:20.397Z,16.77
2018-04-17T07:37:48.883Z,23.90
2018-04-17T07:40:17.123Z,18.13
2018-04-17T07:42:45.367Z,16.30
2018-04-17T07:45:13.648Z,15.83
2018-04-17T07:48:04.514Z,16.77
2018-04-17T07:50:33.214Z,16.73
2018-04-17T07:53:01.452Z,22.43
2018-04-17T07:55:29.975Z,18.17
2018-04-17T07:57:58.355Z,18.97
2018-04-17T08:00:26.652Z,18.53
2018-04-17T08:02:54.899Z,18.17
2018-04-17T08:05:23.170Z,16.40
2018-04-17T08:07:51.418Z,17.50
2018-04-17T08:10:19.662Z,26.60
2018-04-17T08:12:48.718Z,17.93
2018-04-17T08:15:17.003Z,17.70
2018-04-17T08:17:45.260Z,21.20
2018-04-17T08:20:13.768Z,19.27
2018-04-17T08:22:42.018Z,20.40
2018-04-17T08:25:10.271Z,19.83
2018-04-17T08:27:39.306Z,20.00
2018-04-17T08:30:07.588Z,21.43
2018-04-17T08:32:35.843Z,18.20
2018-04-17T08:35:04.103Z,19.70
2018-04-17T08:37:32.382Z,19.07
2018-04-17T08:40:01.394Z,20.23
2018-04-17T08:42:30.531Z,18.80
2018-04-17T08:44:58.778Z,18.53
2018-04-17T08:47:27.023Z,19.20
2018-04-17T08:49:55.296Z,19.43
2018-04-17T08:52:23.884Z,18.07
2018-04-17T08:54:52.937Z,18.10
2018-04-17T08:57:21.195Z,16.30
2018-04-17T08:59:49.446Z,16.53
2018-04-17T09:02:17.753Z,18.20
2018-04-17T09:04:46.135Z,21.57
2018-04-17T09:07:14.731Z,28.43
2018-04-17T09:09:42.985Z,20.83
2018-04-17T09:12:11.246Z,16.60
2018-04-17T09:14:39.498Z,17.23
2018-04-17T09:17:07.783Z,15.93
2018-04-17T09:19:36.178Z,17.40
2018-04-17T09:22:04.403Z,15.10
2018-04-17T09:24:32.855Z,16.73
2018-04-17T09:27:01.445Z,15.13
2018-04-17T09:29:29.847Z,16.90
2018-04-17T09:31:58.099Z,15.90
2018-04-17T09:34:26.371Z,17.07
2018-04-17T09:36:54.748Z,15.70
2018-04-17T09:39:22.991Z,14.10
2018-04-17T09:41:51.271Z,15.93
2018-04-17T09:44:19.523Z,19.20
2018-04-17T09:46:47.773Z,19.63
2018-04-17T09:49:16.103Z,23.53
2018-04-17T09:51:44.359Z,15.67
2018-04-17T09:54:14.927Z,15.53
2018-04-17T09:56:43.287Z,15.40
2018-04-17T09:59:12.295Z,13.97
2018-04-17T10:01:40.555Z,13.30
2018-04-17T10:04:08.825Z,12.73
2018-04-17T10:06:37.072Z,13.23
2018-04-17T10:09:06.188Z,13.40
2018-04-17T10:11:34.783Z,13.50
2018-04-17T10:14:03.800Z,13.23
2018-04-17T10:16:32.051Z,12.30
2018-04-17T10:19:00.336Z,11.40
2018-04-17T10:21:28.579Z,10.90
2018-04-17T10:23:56.825Z,9.10
2018-04-17T10:26:25.113Z,9.43
2018-04-17T10:28:53.443Z,12.00
2018-04-17T10:31:22.451Z,8.37
2018-04-17T10:33:51.163Z,11.00
2018-04-17T10:36:19.403Z,8.50
2018-04-17T10:38:48.860Z,10.23
2018-04-17T10:41:17.112Z,9.27
2018-04-17T10:43:45.364Z,9.33
2018-04-17T10:46:14.037Z,11.33
2018-04-17T10:48:42.376Z,6.70
2018-04-17T10:51:10.599Z,5.90
2018-04-17T10:53:38.834Z,6.53
2018-04-17T10:56:09.408Z,6.17
2018-04-17T10:58:38.935Z,5.03
2018-04-17T11:01:07.919Z,4.80
2018-04-17T11:03:37.260Z,4.93
2018-04-17T11:06:05.534Z,6.60
2018-04-17T11:08:35.350Z,7.17
2018-04-17T11:11:03.912Z,7.13
2018-04-17T11:13:32.220Z,5.30
2018-04-17T11:16:00.442Z,5.90
2018-04-17T11:18:28.764Z,5.23
2018-04-17T11:20:59.207Z,3.90
2018-04-17T11:23:27.443Z,5.70
2018-04-17T11:25:55.852Z,4.40
2018-04-17T11:28:24.765Z,7.37
2018-04-17T11:30:53.331Z,4.97
2018-04-17T11:36:27.674Z,5.40
2018-04-17T11:38:55.947Z,9.00
2018-04-17T11:41:24.174Z,4.40
2018-04-17T11:43:52.443Z,4.93
2018-04-17T11:46:20.678Z,8.40
2018-04-17T11:48:48.928Z,8.50
2018-04-17T11:51:17.196Z,4.87
2018-04-17T11:53:45.439Z,3.13
2018-04-17T11:56:14.667Z,3.23
2018-04-17T11:58:43.356Z,7.33
2018-04-17T12:01:11.696Z,6.40
2018-04-17T12:03:41.023Z,5.60
2018-04-17T12:06:09.298Z,7.67
2018-04-17T12:08:37.548Z,5.37
2018-04-17T12:11:05.788Z,4.63
2018-04-17T12:13:34.064Z,7.73
2018-04-17T12:16:02.375Z,7.90
2018-04-17T12:18:30.619Z,12.03
2018-04-17T12:20:59.091Z,7.30
2018-04-17T12:23:27.342Z,3.20
2018-04-17T12:25:55.609Z,5.93
2018-04-17T12:28:23.861Z,8.00
2018-04-17T12:30:52.863Z,6.13
2018-04-17T12:33:21.878Z,6.07
2018-04-17T12:35:50.130Z,5.00
2018-04-17T12:38:18.368Z,8.30
2018-04-17T12:40:46.607Z,3.50
2018-04-17T12:43:15.103Z,7.87
2018-04-17T12:45:43.351Z,4.53
2018-04-17T12:48:11.587Z,6.13
2018-04-17T12:50:39.852Z,6.33
2018-04-17T12:53:08.105Z,4.57
2018-04-17T12:55:36.331Z,2.33
2018-04-17T12:58:05.023Z,2.83
2018-04-17T13:00:34.026Z,2.30
2018-04-17T13:03:03.039Z,4.70
2018-04-17T13:05:31.431Z,4.63
2018-04-17T13:07:59.678Z,5.00
2018-04-17T13:10:27.944Z,4.10
2018-04-17T13:12:56.967Z,3.27
2018-04-17T13:15:25.203Z,2.63
2018-04-17T13:17:53.441Z,4.83
2018-04-17T13:20:21.706Z,6.83
2018-04-17T13:22:49.947Z,2.93
2018-04-17T13:25:18.184Z,2.10
2018-04-17T13:27:46.804Z,3.97
2018-04-17T13:30:15.035Z,2.67
2018-04-17T13:32:43.275Z,4.17
2018-04-17T13:35:12.308Z,2.93
2018-04-17T13:37:40.552Z,4.50
2018-04-17T13:40:08.788Z,5.40
2018-04-17T13:42:37.052Z,12.20
2018-04-17T13:45:05.288Z,3.07
2018-04-17T13:47:33.531Z,2.33
2018-04-17T13:50:02.646Z,3.87
2018-04-17T13:52:31.639Z,2.40
2018-04-17T13:54:59.881Z,2.30
2018-04-17T13:57:28.139Z,3.57
2018-04-17T13:59:56.958Z,11.47
2018-04-17T14:02:27.206Z,2.50
2018-04-17T14:04:55.413Z,5.87
2018-04-17T14:07:23.635Z,3.27
2018-04-17T14:09:52.665Z,1.60
2018-04-17T14:12:21.738Z,4.90
2018-04-17T14:14:49.979Z,5.10
2018-04-17T14:17:18.281Z,4.43
2018-04-17T14:19:46.484Z,2.30
2018-04-17T14:22:14.728Z,3.60
2018-04-17T14:24:42.963Z,3.03
2018-04-17T14:27:11.234Z,2.27
2018-04-17T14:29:39.471Z,3.80
2018-04-17T14:32:07.750Z,5.90
2018-04-17T14:34:37.093Z,5.93
2018-04-17T14:37:05.332Z,3.77
2018-04-17T14:39:33.574Z,3.60
2018-04-17T14:42:01.856Z,5.00
2018-04-17T14:44:30.223Z,10.00
2018-04-17T14:46:58.472Z,3.17
2018-04-17T14:49:26.728Z,3.43
2018-04-17T14:51:55.128Z,3.37
2018-04-17T14:54:23.396Z,2.60
2018-04-17T14:56:52.011Z,5.53
2018-04-17T14:59:20.284Z,3.00
2018-04-17T15:01:48.905Z,3.93
2018-04-17T15:04:17.981Z,3.23
2018-04-17T15:06:46.218Z,3.40
2018-04-17T15:09:14.458Z,2.70
2018-04-17T15:11:43.499Z,3.87
2018-04-17T15:14:11.727Z,4.57
2018-04-17T15:16:40.739Z,4.70
2018-04-17T15:19:09.259Z,5.00
2018-04-17T15:21:37.515Z,3.50
2018-04-17T15:24:05.759Z,11.20
2018-04-17T15:26:34.019Z,3.83
2018-04-17T15:29:02.408Z,3.90
2018-04-17T15:31:31.415Z,3.73
2018-04-17T15:33:59.680Z,3.40
2018-04-17T15:36:29.868Z,2.33
2018-04-17T15:38:59.371Z,3.37
2018-04-17T15:41:28.873Z,2.43
2018-04-17T15:43:57.164Z,4.17
2018-04-17T15:46:25.529Z,5.60
2018-04-17T15:48:54.357Z,4.63
2018-04-17T15:51:22.555Z,4.00
2018-04-17T15:53:50.979Z,1.90
2018-04-17T15:56:19.239Z,2.30
2018-04-17T15:58:47.483Z,2.80
2018-04-17T16:01:15.756Z,2.97
2018-04-17T16:03:44.607Z,7.00
2018-04-17T16:06:12.923Z,10.90
2018-04-17T16:08:41.269Z,1.80
2018-04-17T16:11:09.552Z,4.17
2018-04-17T16:13:38.011Z,6.10
2018-04-17T16:16:06.395Z,2.60
2018-04-17T16:18:34.788Z,6.90
2018-04-17T16:21:03.027Z,4.83
2018-04-17T16:23:31.870Z,2.60
2018-04-17T16:26:00.974Z,5.93
2018-04-17T16:28:30.000Z,3.50
2018-04-17T16:30:58.239Z,4.70
2018-04-17T16:33:27.259Z,6.13
2018-04-17T16:35:55.515Z,6.93
2018-04-17T16:38:23.746Z,4.00
2018-04-17T16:40:52.009Z,7.23
2018-04-17T16:43:20.608Z,6.73
2018-04-17T16:45:48.988Z,3.17
2018-04-17T16:48:17.515Z,2.97
2018-04-17T16:50:46.523Z,3.67
2018-04-17T16:53:15.774Z,7.60
2018-04-17T16:55:44.177Z,4.23
2018-04-17T16:58:13.635Z,14.67
2018-04-17T17:00:41.860Z,7.80
2018-04-17T17:03:11.455Z,3.00
2018-04-17T17:05:39.692Z,6.30
2018-04-17T17:08:08.086Z,8.40
2018-04-17T17:10:36.406Z,5.37
2018-04-17T17:13:04.649Z,8.87
2018-04-17T17:15:32.887Z,3.10
2018-04-17T17:18:01.151Z,6.47
2018-04-17T17:20:29.551Z,8.40
2018-04-17T17:22:58.200Z,6.80
2018-04-17T17:25:29.335Z,8.33
2018-04-17T17:27:57.563Z,6.10
2018-04-17T17:30:25.806Z,5.23
2018-04-17T17:32:54.439Z,9.77
2018-04-17T17:35:22.903Z,6.90
2018-04-17T17:37:51.135Z,12.63
2018-04-17T17:40:19.472Z,6.23
2018-04-17T17:42:47.693Z,3.43
2018-04-17T17:45:16.731Z,4.17
2018-04-17T17:47:45.008Z,3.73
2018-04-17T17:50:13.681Z,5.30
2018-04-17T17:52:41.922Z,4.27
2018-04-17T17:55:10.362Z,10.33
2018-04-17T17:57:39.771Z,8.90
2018-04-17T18:00:08.004Z,8.80
2018-04-17T18:02:36.283Z,10.13
2018-04-17T18:05:04.567Z,3.87
2018-04-17T18:07:33.055Z,8.70
2018-04-17T18:10:02.323Z,9.10
2018-04-17T18:12:31.333Z,13.37
2018-04-17T18:14:59.782Z,7.80
2018-04-17T18:17:28.099Z,9.83
2018-04-17T18:20:00.466Z,31.90
2018-04-17T18:22:32.804Z,10.83
2018-04-17T18:25:03.016Z,6.27
2018-04-17T18:27:31.280Z,7.83
2018-04-17T18:29:59.528Z,15.63
2018-04-17T18:32:27.762Z,5.40
2018-04-17T18:34:56.204Z,7.23
2018-04-17T18:37:24.975Z,9.73
2018-04-17T18:39:53.207Z,9.70
2018-04-17T18:42:21.447Z,7.37
2018-04-17T18:44:49.795Z,5.63
2018-04-17T18:47:18.407Z,7.93
2018-04-17T18:49:47.707Z,7.97
2018-04-17T18:52:16.107Z,6.53
2018-04-17T18:54:44.356Z,11.50
2018-04-17T18:57:13.039Z,10.10
2018-04-17T18:59:42.847Z,14.63
2018-04-17T19:02:12.091Z,10.27
2018-04-17T19:04:41.071Z,8.53
2018-04-17T19:07:09.333Z,6.67
2018-04-17T19:09:37.576Z,17.53
2018-04-17T19:12:05.819Z,6.13
2018-04-17T19:14:34.291Z,7.47
2018-04-17T19:17:02.549Z,9.97
2018-04-17T19:19:32.219Z,6.97
2018-04-17T19:22:00.708Z,8.20
2018-04-17T19:24:29.198Z,11.33
2018-04-17T19:26:57.423Z,6.40
2018-04-17T19:29:26.451Z,11.90
2018-04-17T19:31:54.697Z,12.10
2018-04-17T19:34:23.143Z,11.33
2018-04-17T19:36:51.886Z,10.57
2018-04-17T19:39:20.291Z,15.23
2018-04-17T19:41:48.524Z,15.07
2018-04-17T19:44:16.853Z,10.53
2018-04-17T19:46:45.095Z,13.87
2018-04-17T19:49:13.347Z,9.07
2018-04-17T19:51:41.611Z,13.27
2018-04-17T19:54:10.792Z,8.33
2018-04-17T19:56:39.052Z,9.93
2018-04-17T19:59:08.506Z,12.27
2018-04-17T20:01:37.839Z,11.43
2018-04-17T20:04:06.152Z,17.70
2018-04-17T20:06:35.244Z,6.63
2018-04-17T20:09:03.487Z,7.77
2018-04-17T20:11:31.901Z,20.70
2018-04-17T20:14:00.155Z,8.63
2018-04-17T20:16:28.432Z,12.57
2018-04-17T20:18:56.671Z,14.43
2018-04-17T20:21:24.937Z,14.73
2018-04-17T20:23:53.186Z,15.00
2018-04-17T20:26:21.661Z,10.70
2018-04-17T20:28:50.072Z,8.03
2018-04-17T20:31:18.313Z,14.70
2018-04-17T20:33:46.559Z,7.73
2018-04-17T20:36:14.976Z,10.40
2018-04-17T20:38:43.232Z,10.77
2018-04-17T20:41:11.471Z,18.20
2018-04-17T20:43:39.739Z,10.13
2018-04-17T20:46:07.992Z,13.53
2018-04-17T20:48:36.238Z,8.50
2018-04-17T20:51:06.050Z,16.33
2018-04-17T20:53:34.291Z,14.00
2018-04-17T20:56:02.544Z,16.30
2018-04-17T20:58:30.812Z,8.80
2018-04-17T21:00:59.177Z,7.43
2018-04-17T21:03:27.414Z,9.70
2018-04-17T21:05:55.707Z,10.83
2018-04-17T21:08:24.040Z,6.57
2018-04-17T21:10:53.042Z,6.60
2018-04-17T21:13:22.530Z,13.93
2018-04-17T21:15:50.763Z,11.03
2018-04-17T21:18:18.999Z,15.23
2018-04-17T21:20:47.267Z,7.37
2018-04-17T21:23:15.509Z,12.53
2018-04-17T21:25:43.807Z,9.83
2018-04-17T21:28:13.580Z,10.97
2018-04-17T21:30:41.826Z,14.13
2018-04-17T21:33:10.071Z,7.23
2018-04-17T21:35:38.746Z,12.23
2018-04-17T21:38:06.991Z,6.13
2018-04-17T21:40:35.232Z,7.87
2018-04-17T21:43:03.499Z,8.17
2018-04-17T21:45:32.506Z,15.07
2018-04-17T21:48:01.524Z,16.80
2018-04-17T21:50:29.782Z,9.03
2018-04-17T21:52:58.212Z,15.30
2018-04-17T21:55:26.456Z,7.33
2018-04-17T21:57:55.047Z,9.13
2018-04-17T22:00:24.271Z,11.37
2018-04-17T22:02:52.807Z,12.53
2018-04-17T22:05:21.075Z,10.27
2018-04-17T22:07:50.090Z,7.90
2018-04-17T22:10:18.711Z,6.50
2018-04-17T22:12:46.975Z,6.57
2018-04-17T22:15:15.218Z,9.63
2018-04-17T22:17:44.220Z,9.03
2018-04-17T22:20:12.888Z,17.80
2018-04-17T22:22:41.901Z,11.23
2018-04-17T22:25:10.143Z,6.43
2018-04-17T22:27:38.410Z,12.80
2018-04-17T22:30:06.695Z,6.07
2018-04-17T22:32:35.695Z,9.60
2018-04-17T22:35:04.839Z,9.50
2018-04-17T22:37:33.063Z,11.80
2018-04-17T22:40:02.068Z,12.27
2018-04-17T22:42:31.529Z,9.57
2018-04-17T22:44:59.751Z,14.40
2018-04-17T22:47:28.759Z,9.10
2018-04-17T22:49:57.467Z,11.50
2018-04-17T22:52:25.803Z,11.33
2018-04-17T22:54:54.806Z,8.40
2018-04-17T22:57:23.834Z,13.90
2018-04-17T22:59:52.131Z,14.67
2018-04-17T23:02:20.374Z,6.00
2018-04-17T23:04:48.699Z,14.03
2018-04-17T23:07:17.708Z,12.33
2018-04-17T23:09:46.950Z,6.20
2018-04-17T23:12:15.620Z,11.53
2018-04-17T23:14:43.951Z,10.23
2018-04-17T23:17:12.195Z,8.17
2018-04-17T23:19:40.596Z,14.77
2018-04-17T23:22:08.819Z,9.20
2018-04-17T23:24:37.838Z,8.77
2018-04-17T23:27:06.228Z,7.00
2018-04-17T23:29:34.564Z,11.03
2018-04-17T23:32:03.587Z,17.63
2018-04-17T23:34:31.944Z,13.47
2018-04-17T23:37:00.962Z,11.20
2018-04-17T23:39:29.200Z,8.97
2018-04-17T23:41:57.468Z,11.57
2018-04-17T23:44:25.722Z,9.07
2018-04-17T23:46:54.001Z,6.33
2018-04-17T23:49:22.567Z,11.00
2018-04-17T23:51:50.820Z,10.43
2018-04-17T23:54:19.075Z,6.60
2018-04-17T23:56:47.344Z,9.60
2018-04-17T23:59:16.348Z,8.87
